Time;durP1;ratioP1;P1;durP2;ratioP2;P2;SDS_P1;SDS_P2;PMS_P1;PMS_P2;Temp;Humidity;BMP_temperature;BMP_pressure;BME280_temperature;BME280_humidity;BME280_pressure;Samples;Min_cycle;Max_cycle;Signal;HPM_P1;HPM_P2
2021/11/29 00:02:19;;;;;;;10.80;5.25;;;0.70;93.70;;;;;;5067529;28;20048;-55
2021/11/29 00:04:46;;;;;;;9.40;5.95;;;0.70;94.10;;;;;;5068212;28;20371;-55
2021/11/29 00:07:13;;;;;;;9.45;5.30;;;0.60;94.00;;;;;;5068212;28;20048;-56
2021/11/29 00:09:40;;;;;;;9.88;5.95;;;0.60;94.10;;;;;;5073399;28;20518;-58
2021/11/29 00:12:07;;;;;;;11.65;5.93;;;0.60;94.30;;;;;;5066532;28;20041;-55
2021/11/29 00:14:34;;;;;;;11.75;5.75;;;0.50;94.10;;;;;;5066360;28;20256;-56
2021/11/29 00:17:01;;;;;;;12.05;6.25;;;0.50;94.60;;;;;;5066295;28;20146;-56
2021/11/29 00:19:28;;;;;;;9.93;5.88;;;0.50;94.60;;;;;;5065313;28;20044;-56
2021/11/29 00:21:56;;;;;;;12.38;6.10;;;0.40;94.60;;;;;;5066291;28;20145;-54
2021/11/29 00:24:23;;;;;;;11.63;6.15;;;0.30;95.70;;;;;;5067261;28;20072;-55
2021/11/29 00:26:49;;;;;;;9.52;5.20;;;0.30;95.40;;;;;;5067605;28;20529;-54
2021/11/29 00:29:16;;;;;;;19.73;8.02;;;0.30;94.80;;;;;;5067522;28;20056;-55
2021/11/29 00:31:43;;;;;;;11.10;6.80;;;0.20;95.30;;;;;;5067765;28;20537;-56
2021/11/29 00:34:10;;;;;;;12.60;5.97;;;0.20;95.00;;;;;;5067856;28;20136;-58
2021/11/29 00:36:38;;;;;;;14.23;6.80;;;0.20;95.40;;;;;;5067625;28;20048;-55
2021/11/29 00:39:05;;;;;;;12.02;7.35;;;0.10;95.90;;;;;;5068678;28;20048;-56
2021/11/29 00:41:32;;;;;;;11.70;7.00;;;0.10;95.20;;;;;;5068009;28;20511;-52
2021/11/29 00:43:59;;;;;;;13.35;6.47;;;0.10;95.90;;;;;;5068238;28;20044;-55
2021/11/29 00:46:26;;;;;;;12.75;7.15;;;0.10;95.50;;;;;;5068425;28;20420;-55
2021/11/29 00:48:53;;;;;;;11.23;6.10;;;0.10;95.50;;;;;;5067807;28;20121;-56
2021/11/29 00:51:20;;;;;;;15.50;7.70;;;0.10;95.40;;;;;;5068403;28;20110;-54
2021/11/29 00:53:47;;;;;;;11.10;6.22;;;0.10;95.30;;;;;;5068242;28;20052;-53
2021/11/29 00:56:15;;;;;;;17.13;7.68;;;0.10;95.70;;;;;;5067199;28;20491;-55
2021/11/29 00:58:41;;;;;;;15.90;7.30;;;0.10;95.90;;;;;;5066857;28;20551;-54
2021/11/29 01:01:09;;;;;;;14.00;7.20;;;0.10;95.40;;;;;;5064856;28;20068;-57
2021/11/29 01:03:38;;;;;;;13.65;6.85;;;0.10;95.20;;;;;;5063847;28;20124;-57
2021/11/29 01:06:06;;;;;;;13.40;6.60;;;0.10;95.50;;;;;;5059338;28;20044;-52
2021/11/29 01:08:34;;;;;;;16.85;8.77;;;0.00;95.60;;;;;;5067098;28;20044;-55
2021/11/29 01:11:01;;;;;;;14.32;7.85;;;0.00;95.40;;;;;;5067474;28;20105;-53
2021/11/29 01:13:28;;;;;;;13.50;7.57;;;0.00;95.30;;;;;;5066833;28;20056;-52
2021/11/29 01:15:55;;;;;;;13.75;7.15;;;-0.10;95.90;;;;;;5067773;28;20503;-55
2021/11/29 01:18:22;;;;;;;17.63;8.60;;;0.00;95.60;;;;;;5067262;28;20080;-55
2021/11/29 01:20:48;;;;;;;16.20;8.02;;;0.10;95.70;;;;;;5067270;28;20075;-56
2021/11/29 01:23:16;;;;;;;13.95;8.48;;;0.10;95.50;;;;;;5066529;28;20067;-55
2021/11/29 01:25:43;;;;;;;16.25;8.20;;;0.10;95.70;;;;;;5065544;28;20587;-55
2021/11/29 01:28:11;;;;;;;14.57;7.75;;;0.20;95.10;;;;;;5066585;28;20037;-55
2021/11/29 01:30:38;;;;;;;17.95;8.13;;;0.20;95.70;;;;;;5066443;28;20110;-53
2021/11/29 01:33:05;;;;;;;19.75;8.40;;;0.20;95.50;;;;;;5065434;28;20064;-53
2021/11/29 01:35:33;;;;;;;14.10;7.55;;;0.20;95.20;;;;;;5066844;28;20060;-54
2021/11/29 01:38:00;;;;;;;18.42;9.18;;;0.20;95.50;;;;;;5068034;28;20214;-53
2021/11/29 01:40:27;;;;;;;15.30;7.63;;;0.20;95.20;;;;;;5067959;28;20053;-54
2021/11/29 01:42:56;;;;;;;15.95;8.07;;;0.20;95.20;;;;;;5068419;28;20349;-54
2021/11/29 01:45:23;;;;;;;14.20;8.05;;;0.20;95.30;;;;;;5069757;28;20060;-55
2021/11/29 01:47:50;;;;;;;16.20;7.47;;;0.20;95.10;;;;;;4717294;27;10000736;-57
2021/11/29 01:50:17;;;;;;;16.38;8.07;;;0.10;95.40;;;;;;5067635;28;20048;-52
2021/11/29 01:52:43;;;;;;;14.43;8.23;;;0.10;95.00;;;;;;5069305;28;20098;-56
2021/11/29 01:55:10;;;;;;;15.23;8.60;;;0.10;95.20;;;;;;5069355;28;20603;-54
2021/11/29 01:57:37;;;;;;;14.95;7.68;;;0.00;95.10;;;;;;5069382;28;20052;-56
2021/11/29 02:00:06;;;;;;;14.45;8.32;;;-0.10;95.30;;;;;;5069199;28;20145;-55
2021/11/29 02:02:33;;;;;;;15.65;9.55;;;-0.10;95.40;;;;;;5068922;28;20124;-56
2021/11/29 02:05:00;;;;;;;14.48;7.70;;;-0.10;95.60;;;;;;5067926;28;20491;-56
2021/11/29 02:07:27;;;;;;;13.25;7.75;;;-0.20;95.40;;;;;;5068179;28;20162;-55
2021/11/29 02:09:54;;;;;;;16.77;8.13;;;-0.20;96.00;;;;;;5070735;28;20052;-54
2021/11/29 02:12:21;;;;;;;13.55;8.50;;;-0.30;95.80;;;;;;5069536;28;20048;-55
2021/11/29 02:14:49;;;;;;;16.30;7.88;;;-0.30;95.70;;;;;;5071654;28;20075;-51
2021/11/29 02:17:16;;;;;;;13.65;8.68;;;-0.30;95.80;;;;;;5072038;28;20101;-56
2021/11/29 02:19:45;;;;;;;14.82;8.15;;;-0.30;95.50;;;;;;5071193;28;20467;-54
2021/11/29 02:22:12;;;;;;;13.30;7.90;;;-0.30;95.50;;;;;;5070578;28;20058;-52
2021/11/29 02:24:39;;;;;;;15.05;8.80;;;-0.20;95.30;;;;;;5069346;28;20041;-55
2021/11/29 02:27:06;;;;;;;13.95;7.93;;;-0.30;95.30;;;;;;5070739;28;20094;-54
2021/11/29 02:29:34;;;;;;;13.52;7.32;;;-0.30;95.60;;;;;;5070957;28;20101;-55
2021/11/29 02:32:01;;;;;;;14.73;8.38;;;-0.30;95.40;;;;;;5070854;28;20045;-55
2021/11/29 02:34:29;;;;;;;15.18;8.52;;;-0.30;95.40;;;;;;5070535;28;20052;-54
2021/11/29 02:36:57;;;;;;;15.15;8.65;;;-0.40;95.40;;;;;;5070217;28;20049;-54
2021/11/29 02:39:24;;;;;;;17.38;9.00;;;-0.40;95.50;;;;;;5070445;28;20048;-55
2021/11/29 02:41:52;;;;;;;23.50;10.82;;;-0.50;96.20;;;;;;5064793;28;20049;-59
2021/11/29 02:44:19;;;;;;;14.68;8.50;;;-0.50;95.90;;;;;;5069276;28;20078;-55
2021/11/29 02:46:46;;;;;;;17.95;9.23;;;-0.50;95.80;;;;;;5070250;28;20503;-57
2021/11/29 02:49:13;;;;;;;19.00;8.98;;;-0.60;96.20;;;;;;5069751;28;20431;-55
2021/11/29 02:51:42;;;;;;;20.65;9.32;;;-0.20;96.20;;;;;;5069920;28;20516;-53
2021/11/29 02:54:18;;;;;;;18.88;9.55;;;-0.60;96.20;;;;;;5069299;28;20360;-53
2021/11/29 02:56:46;;;;;;;15.80;8.73;;;-0.50;96.40;;;;;;5068476;28;20049;-53
2021/11/29 02:59:18;;;;;;;23.13;10.18;;;-0.60;96.20;;;;;;5051925;28;20045;-54
2021/11/29 03:01:50;;;;;;;23.03;10.33;;;-0.60;96.50;;;;;;5068374;28;20055;-53
2021/11/29 03:04:21;;;;;;;18.63;8.70;;;-0.60;96.40;;;;;;5068703;28;20098;-56
2021/11/29 03:06:48;;;;;;;15.88;9.40;;;-0.60;96.20;;;;;;5069538;28;20131;-54
2021/11/29 03:09:15;;;;;;;17.33;10.02;;;-0.60;96.30;;;;;;5069881;28;20138;-54
2021/11/29 03:11:42;;;;;;;19.13;10.00;;;-0.60;96.00;;;;;;5069193;28;20044;-54
2021/11/29 03:14:09;;;;;;;18.02;9.70;;;-0.50;96.30;;;;;;5069946;28;20048;-57
2021/11/29 03:16:36;;;;;;;17.17;10.52;;;-0.50;96.10;;;;;;5069832;28;20059;-56
2021/11/29 03:19:03;;;;;;;19.98;9.77;;;-0.60;96.10;;;;;;5070060;28;20249;-52
2021/11/29 03:21:30;;;;;;;20.45;10.23;;;-0.60;96.30;;;;;;5069377;28;20106;-56
2021/11/29 03:23:59;;;;;;;20.27;10.45;;;-0.50;96.40;;;;;;5068228;28;20048;-55
2021/11/29 03:26:27;;;;;;;20.23;10.88;;;-0.60;96.50;;;;;;5068110;28;20044;-55
2021/11/29 03:28:58;;;;;;;31.92;12.32;;;-0.60;96.40;;;;;;5067967;28;20048;-55
2021/11/29 03:31:27;;;;;;;19.23;10.32;;;-0.60;96.20;;;;;;5069385;28;20044;-55
2021/11/29 03:33:57;;;;;;;22.48;10.38;;;-0.50;96.40;;;;;;5067914;28;20055;-53
2021/11/29 03:36:24;;;;;;;16.95;9.88;;;-0.60;96.30;;;;;;5069362;28;20056;-55
2021/11/29 03:38:51;;;;;;;19.92;10.38;;;-0.60;96.20;;;;;;5069076;28;20491;-54
2021/11/29 03:41:18;;;;;;;19.42;10.25;;;-0.60;96.00;;;;;;5068846;28;20102;-52
2021/11/29 03:43:45;;;;;;;20.50;10.77;;;-0.60;96.10;;;;;;5068867;28;20059;-54
2021/11/29 03:46:12;;;;;;;17.45;9.95;;;-0.60;96.10;;;;;;5069953;28;20102;-55
2021/11/29 03:48:39;;;;;;;18.33;10.15;;;-0.50;96.10;;;;;;5069829;28;20143;-55
2021/11/29 03:51:06;;;;;;;23.10;9.57;;;-0.50;95.90;;;;;;5070236;28;20102;-56
2021/11/29 03:53:33;;;;;;;18.63;10.60;;;-0.60;96.00;;;;;;5069183;28;20102;-55
2021/11/29 03:55:59;;;;;;;21.85;10.15;;;-0.60;96.20;;;;;;5069349;28;20048;-53
2021/11/29 03:58:27;;;;;;;21.70;10.40;;;-0.70;96.30;;;;;;5069415;28;20045;-52
2021/11/29 04:00:54;;;;;;;18.83;9.93;;;-0.70;96.50;;;;;;5068632;28;20044;-52
2021/11/29 04:03:21;;;;;;;19.65;11.27;;;-0.80;96.50;;;;;;5059216;28;20057;-54
2021/11/29 04:05:48;;;;;;;21.17;11.35;;;-0.80;96.50;;;;;;5064247;28;20049;-53
2021/11/29 04:08:14;;;;;;;25.90;12.73;;;-0.80;96.60;;;;;;5068777;28;20140;-55
2021/11/29 04:10:41;;;;;;;24.02;11.07;;;-0.80;96.70;;;;;;5068526;28;20048;-54
2021/11/29 04:13:08;;;;;;;26.13;10.65;;;-0.90;96.80;;;;;;5068788;28;20048;-56
2021/11/29 04:15:35;;;;;;;23.65;10.98;;;-0.90;97.00;;;;;;5068891;28;20051;-52
2021/11/29 04:18:04;;;;;;;22.13;10.23;;;-0.90;97.20;;;;;;5068600;28;20052;-53
2021/11/29 04:20:31;;;;;;;23.30;11.63;;;-0.90;97.00;;;;;;5067410;28;20488;-52
2021/11/29 04:22:58;;;;;;;26.67;12.35;;;-0.90;97.00;;;;;;5068089;28;20075;-55
2021/11/29 04:25:26;;;;;;;27.23;11.88;;;-0.70;97.00;;;;;;5067934;28;20638;-55
2021/11/29 04:27:55;;;;;;;22.23;10.90;;;-0.90;97.00;;;;;;5068493;28;20124;-54
2021/11/29 04:30:24;;;;;;;23.55;12.07;;;-0.90;96.90;;;;;;5067848;28;20577;-53
2021/11/29 04:32:53;;;;;;;24.70;11.55;;;-0.90;97.20;;;;;;5067173;28;20109;-55
2021/11/29 04:35:19;;;;;;;24.40;10.55;;;-0.90;97.10;;;;;;5067645;28;20048;-54
2021/11/29 04:37:46;;;;;;;20.40;10.00;;;-0.90;97.00;;;;;;5068088;28;20452;-55
2021/11/29 04:40:13;;;;;;;21.23;10.50;;;-0.90;96.90;;;;;;5067882;28;20108;-55
2021/11/29 04:42:40;;;;;;;24.35;11.63;;;-0.90;96.80;;;;;;5050519;28;20458;-52
2021/11/29 04:45:07;;;;;;;23.88;10.43;;;-0.90;97.00;;;;;;5067664;28;20083;-55
2021/11/29 04:47:34;;;;;;;22.42;11.25;;;-0.90;96.80;;;;;;5067164;28;20519;-53
2021/11/29 04:50:01;;;;;;;22.95;11.55;;;-0.90;97.00;;;;;;5067628;28;20557;-57
2021/11/29 04:52:28;;;;;;;21.17;10.88;;;-1.00;96.90;;;;;;5068303;28;20041;-55
2021/11/29 04:54:55;;;;;;;25.92;11.20;;;-0.90;97.30;;;;;;5067673;28;20411;-54
2021/11/29 04:57:22;;;;;;;24.73;10.95;;;-1.00;97.20;;;;;;5067669;28;20508;-55
2021/11/29 04:59:49;;;;;;;25.35;11.52;;;-1.00;97.30;;;;;;5067471;28;20098;-52
2021/11/29 05:02:15;;;;;;;28.70;12.48;;;-1.00;97.50;;;;;;5067734;28;20052;-55
2021/11/29 05:04:46;;;;;;;27.25;12.75;;;-1.00;97.30;;;;;;5067745;28;20048;-53
2021/11/29 05:07:13;;;;;;;24.30;11.35;;;-1.00;97.10;;;;;;5067921;28;20044;-55
2021/11/29 05:09:42;;;;;;;23.30;11.90;;;-1.00;97.20;;;;;;5068130;28;20048;-53
2021/11/29 05:12:09;;;;;;;28.02;12.05;;;-1.00;97.40;;;;;;5067030;28;20044;-54
2021/11/29 05:14:36;;;;;;;23.13;11.07;;;-0.90;97.10;;;;;;5066182;28;20055;-56
2021/11/29 05:17:03;;;;;;;23.75;12.52;;;-1.00;97.20;;;;;;5067742;28;20045;-55
2021/11/29 05:19:30;;;;;;;25.95;11.82;;;-1.00;97.20;;;;;;5069175;28;20518;-54
2021/11/29 05:21:57;;;;;;;21.35;12.10;;;-1.00;97.20;;;;;;5069284;28;20068;-56
2021/11/29 05:24:24;;;;;;;28.02;11.95;;;-0.90;97.10;;;;;;5068390;28;20110;-56
2021/11/29 05:26:50;;;;;;;23.65;11.35;;;-0.90;97.10;;;;;;5067361;28;20417;-53
2021/11/29 05:29:18;;;;;;;21.85;11.27;;;-0.90;97.20;;;;;;5067412;28;20127;-54
2021/11/29 05:31:45;;;;;;;22.10;11.25;;;-0.90;97.30;;;;;;5067800;28;20113;-52
2021/11/29 05:34:13;;;;;;;27.50;12.38;;;-1.00;97.30;;;;;;5068741;28;20045;-55
2021/11/29 05:36:43;;;;;;;21.27;11.15;;;-1.00;97.20;;;;;;5066939;28;20048;-58
2021/11/29 05:39:11;;;;;;;28.75;11.60;;;-1.00;97.40;;;;;;5067927;28;20059;-57
2021/11/29 05:41:37;;;;;;;21.80;11.27;;;-1.00;97.40;;;;;;5067088;28;20068;-55
2021/11/29 05:44:04;;;;;;;22.65;11.80;;;-1.00;97.50;;;;;;5067180;28;20044;-53
2021/11/29 05:46:31;;;;;;;24.48;10.77;;;-1.00;97.40;;;;;;5067516;28;20098;-55
2021/11/29 05:48:58;;;;;;;24.33;11.23;;;-1.00;97.50;;;;;;5067344;28;20113;-53
2021/11/29 05:51:26;;;;;;;22.98;11.65;;;0.00;97.60;;;;;;5065872;28;20084;-54
2021/11/29 05:53:53;;;;;;;26.70;12.63;;;-1.00;97.60;;;;;;5067672;28;20055;-53
2021/11/29 05:56:20;;;;;;;25.38;11.18;;;-1.00;97.60;;;;;;5067021;28;20094;-54
2021/11/29 05:58:47;;;;;;;24.98;11.07;;;-1.00;97.80;;;;;;5066643;28;20531;-53
2021/11/29 06:01:14;;;;;;;22.92;11.32;;;-1.00;98.00;;;;;;5066912;28;20480;-54
2021/11/29 06:03:44;;;;;;;24.23;11.63;;;-1.00;97.90;;;;;;5066903;28;20488;-52
2021/11/29 06:06:12;;;;;;;29.20;13.88;;;-1.00;98.00;;;;;;5065763;28;20049;-51
2021/11/29 06:08:39;;;;;;;25.02;11.45;;;-1.00;97.70;;;;;;5067027;28;20044;-57
2021/11/29 06:11:06;;;;;;;25.13;12.73;;;-0.90;97.70;;;;;;5067038;28;20053;-55
2021/11/29 06:13:33;;;;;;;25.38;11.80;;;-0.90;97.60;;;;;;5066581;28;20558;-54
2021/11/29 06:16:00;;;;;;;25.83;11.48;;;-0.90;97.60;;;;;;5067227;28;20086;-51
2021/11/29 06:18:27;;;;;;;24.35;11.25;;;-0.90;97.80;;;;;;5066472;28;20087;-57
2021/11/29 06:20:53;;;;;;;28.73;12.27;;;-0.90;97.60;;;;;;5047029;28;20053;-56
2021/11/29 06:23:20;;;;;;;26.15;11.93;;;-1.00;98.00;;;;;;5061755;28;20326;-54
2021/11/29 06:25:47;;;;;;;23.95;11.77;;;-1.00;98.10;;;;;;5070352;28;20048;-53
2021/11/29 06:28:14;;;;;;;27.55;13.35;;;-1.00;98.00;;;;;;5070140;28;20384;-56
2021/11/29 06:30:41;;;;;;;23.90;11.80;;;-1.00;98.00;;;;;;5070663;28;20051;-52
2021/11/29 06:33:07;;;;;;;26.50;13.85;;;-1.00;98.00;;;;;;5070412;28;20052;-55
2021/11/29 06:35:34;;;;;;;24.10;12.23;;;-1.00;98.30;;;;;;5070010;28;20082;-54
2021/11/29 06:38:04;;;;;;;31.50;13.35;;;-1.00;98.30;;;;;;5066886;28;20080;-53
2021/11/29 06:40:31;;;;;;;23.75;11.85;;;-0.90;98.30;;;;;;5069844;28;20082;-53
2021/11/29 06:42:58;;;;;;;24.33;12.60;;;-1.00;98.50;;;;;;5067907;28;20123;-59
2021/11/29 06:45:25;;;;;;;24.85;13.45;;;-1.00;98.60;;;;;;5070418;28;20107;-53
2021/11/29 06:47:52;;;;;;;25.60;11.80;;;-1.00;98.60;;;;;;5070093;28;20052;-52
2021/11/29 06:50:19;;;;;;;24.42;11.80;;;-1.00;98.50;;;;;;5069328;28;20083;-55
2021/11/29 06:52:48;;;;;;;29.02;13.73;;;-0.90;98.60;;;;;;5072646;28;20044;-54
2021/11/29 06:55:16;;;;;;;20.52;10.23;;;-1.00;98.60;;;;;;5072527;28;20053;-55
2021/11/29 06:57:43;;;;;;;25.10;11.57;;;-1.00;98.60;;;;;;5070577;28;20106;-55
2021/11/29 07:00:11;;;;;;;26.42;11.05;;;-1.00;98.40;;;;;;5069878;28;20048;-57
2021/11/29 07:02:41;;;;;;;29.65;14.02;;;-1.00;98.60;;;;;;5070326;28;20114;-55
2021/11/29 07:05:09;;;;;;;26.30;11.73;;;-1.00;98.50;;;;;;5069441;28;20487;-56
2021/11/29 07:07:35;;;;;;;28.23;13.10;;;-1.00;98.20;;;;;;5068302;28;20052;-54
2021/11/29 07:10:04;;;;;;;24.40;11.50;;;-1.00;98.20;;;;;;5070170;28;20053;-54
2021/11/29 07:12:31;;;;;;;28.80;11.45;;;-1.00;98.40;;;;;;5068700;28;20311;-55
2021/11/29 07:14:57;;;;;;;25.90;12.32;;;-0.90;98.20;;;;;;4715895;28;10000382;-55
2021/11/29 07:17:24;;;;;;;28.98;13.02;;;-0.90;98.00;;;;;;5065834;28;20044;-54
2021/11/29 07:19:53;;;;;;;27.25;12.93;;;-0.90;98.30;;;;;;5063683;28;20145;-55
2021/11/29 07:22:23;;;;;;;23.92;12.38;;;-0.90;98.00;;;;;;5065586;28;20129;-56
2021/11/29 07:24:54;;;;;;;24.02;12.93;;;-0.90;98.20;;;;;;5065287;28;20538;-55
2021/11/29 07:27:22;;;;;;;25.17;11.93;;;-0.90;98.00;;;;;;5065690;28;20131;-57
2021/11/29 07:29:52;;;;;;;24.17;12.20;;;-0.90;97.90;;;;;;5065107;28;20048;-53
2021/11/29 07:32:22;;;;;;;27.35;13.00;;;-0.90;98.00;;;;;;5066312;28;20052;-55
2021/11/29 07:34:49;;;;;;;27.10;12.25;;;-0.90;98.00;;;;;;5065287;28;20087;-56
2021/11/29 07:37:16;;;;;;;26.50;12.93;;;-0.90;97.90;;;;;;5065734;28;20102;-55
2021/11/29 07:39:43;;;;;;;25.15;12.25;;;-0.90;97.90;;;;;;5064999;28;20048;-54
2021/11/29 07:42:10;;;;;;;27.88;12.63;;;-0.90;98.00;;;;;;5065841;28;20459;-55
2021/11/29 07:44:37;;;;;;;30.70;13.45;;;-0.90;98.10;;;;;;5064722;28;20048;-53
2021/11/29 07:47:04;;;;;;;29.63;12.15;;;-0.80;97.90;;;;;;5064826;28;20132;-54
2021/11/29 07:49:31;;;;;;;25.27;12.00;;;-0.80;97.90;;;;;;5065597;28;20312;-55
2021/11/29 07:51:58;;;;;;;28.58;12.15;;;-0.80;98.00;;;;;;5063690;28;20090;-55
2021/11/29 07:54:25;;;;;;;28.13;12.70;;;-0.80;97.70;;;;;;5065732;28;20395;-57
2021/11/29 07:56:52;;;;;;;22.92;11.73;;;-0.80;97.90;;;;;;5065680;28;20172;-55
2021/11/29 07:59:19;;;;;;;27.85;11.80;;;-0.80;98.00;;;;;;5063573;28;20048;-55
2021/11/29 08:01:58;;;;;;;23.70;10.82;;;-0.90;97.90;;;;;;5064658;28;20078;-54
2021/11/29 08:04:26;;;;;;;26.80;12.30;;;-0.80;98.00;;;;;;5065085;28;20167;-51
2021/11/29 08:06:53;;;;;;;31.23;13.18;;;-0.80;97.90;;;;;;5063897;28;20066;-54
2021/11/29 08:09:19;;;;;;;27.73;12.68;;;-0.80;97.80;;;;;;5065829;28;20052;-55
2021/11/29 08:11:46;;;;;;;25.50;14.55;;;-0.70;97.80;;;;;;5065400;28;20484;-53
2021/11/29 08:14:13;;;;;;;27.38;13.05;;;-0.70;97.80;;;;;;5065033;28;20090;-54
2021/11/29 08:16:40;;;;;;;25.58;12.85;;;-0.70;97.70;;;;;;5064850;28;20048;-57
2021/11/29 08:19:07;;;;;;;27.52;13.05;;;-0.60;97.90;;;;;;5063188;28;20063;-56
2021/11/29 08:21:42;;;;;;;26.67;12.38;;;-0.60;97.80;;;;;;5054377;28;20045;-56
2021/11/29 08:24:10;;;;;;;27.63;12.68;;;-0.60;97.70;;;;;;5064649;28;20127;-55
2021/11/29 08:26:37;;;;;;;26.95;12.38;;;-0.60;97.70;;;;;;5064777;28;20245;-55
2021/11/29 08:29:04;;;;;;;24.00;12.07;;;-0.50;97.60;;;;;;5065230;28;20539;-53
2021/11/29 08:31:31;;;;;;;23.92;12.40;;;-0.50;97.50;;;;;;5064649;28;20542;-53
2021/11/29 08:33:58;;;;;;;24.92;12.55;;;-0.50;97.60;;;;;;5064215;28;20055;-54
2021/11/29 08:36:26;;;;;;;26.25;11.73;;;-0.40;97.60;;;;;;5063336;28;20127;-56
2021/11/29 08:38:53;;;;;;;24.30;11.93;;;-0.40;97.40;;;;;;5064022;28;20123;-54
2021/11/29 08:41:21;;;;;;;27.15;11.38;;;-0.40;97.50;;;;;;5064506;28;20082;-56
2021/11/29 08:43:48;;;;;;;29.25;11.70;;;-0.40;97.40;;;;;;5067279;28;20304;-53
2021/11/29 08:46:15;;;;;;;26.70;13.38;;;-0.40;97.60;;;;;;5067371;28;20098;-56
2021/11/29 08:48:42;;;;;;;28.00;13.80;;;-0.30;97.60;;;;;;5065572;28;20079;-57
2021/11/29 08:51:09;;;;;;;30.42;11.73;;;-0.20;97.30;;;;;;5065426;28;20048;-56
2021/11/29 08:53:38;;;;;;;27.10;12.52;;;-0.30;97.10;;;;;;5054269;28;20458;-56
2021/11/29 08:56:05;;;;;;;25.98;13.30;;;-0.20;97.30;;;;;;5064859;28;20095;-56
2021/11/29 08:58:33;;;;;;;27.83;12.82;;;-0.20;97.20;;;;;;5065821;28;20064;-54
2021/11/29 09:01:00;;;;;;;26.17;13.48;;;-0.20;97.10;;;;;;5065829;28;20048;-54
2021/11/29 09:03:27;;;;;;;24.42;12.57;;;-0.10;97.10;;;;;;5065838;28;20143;-55
2021/11/29 09:05:55;;;;;;;30.27;12.48;;;-0.10;97.10;;;;;;5065710;28;20114;-56
2021/11/29 09:08:22;;;;;;;24.95;12.73;;;0.00;97.00;;;;;;5067227;28;20467;-55
2021/11/29 09:10:49;;;;;;;34.97;13.57;;;0.00;96.90;;;;;;5067151;28;20052;-56
2021/11/29 09:13:36;;;;;;;31.52;12.95;;;0.10;96.80;;;;;;5066523;28;20082;-55
2021/11/29 09:16:04;;;;;;;23.52;12.02;;;0.10;96.70;;;;;;5067470;28;20135;-53
2021/11/29 09:18:32;;;;;;;31.45;13.40;;;0.20;97.10;;;;;;5066758;28;20036;-54
2021/11/29 09:20:59;;;;;;;29.20;12.50;;;0.30;96.90;;;;;;5067178;28;20554;-51
2021/11/29 09:23:27;;;;;;;27.35;12.50;;;0.30;96.70;;;;;;5066731;28;20098;-55
2021/11/29 09:25:54;;;;;;;26.50;13.57;;;0.30;96.70;;;;;;5065330;28;20110;-56
2021/11/29 09:28:21;;;;;;;23.45;12.40;;;0.30;96.60;;;;;;5066922;28;20052;-55
2021/11/29 09:30:48;;;;;;;26.63;12.10;;;0.40;96.60;;;;;;5067111;28;20076;-54
2021/11/29 09:33:15;;;;;;;26.48;12.35;;;0.40;96.60;;;;;;5066621;28;20491;-55
2021/11/29 09:35:42;;;;;;;27.58;12.55;;;0.50;96.60;;;;;;5067170;28;20072;-55
2021/11/29 09:38:10;;;;;;;32.35;14.45;;;0.50;96.50;;;;;;5067033;28;20044;-53
2021/11/29 09:40:38;;;;;;;33.40;13.35;;;0.50;96.30;;;;;;5066631;28;20049;-56
2021/11/29 09:43:08;;;;;;;28.65;13.32;;;1.30;96.70;;;;;;5067222;28;20076;-57
2021/11/29 09:45:36;;;;;;;24.55;12.82;;;0.50;96.40;;;;;;5066955;28;20075;-55
2021/11/29 09:48:07;;;;;;;27.02;12.30;;;0.50;96.60;;;;;;5066892;28;20091;-56
2021/11/29 09:50:35;;;;;;;27.20;13.60;;;0.60;96.60;;;;;;5065572;28;20049;-57
2021/11/29 09:53:02;;;;;;;26.25;13.40;;;0.60;96.50;;;;;;5066838;28;20093;-55
2021/11/29 09:55:33;;;;;;;24.98;11.98;;;0.60;96.30;;;;;;5064982;28;20048;-57
2021/11/29 09:58:00;;;;;;;27.33;14.23;;;0.70;96.40;;;;;;5067192;28;20048;-55
2021/11/29 10:00:38;;;;;;;26.15;12.27;;;0.70;96.40;;;;;;5069278;28;20563;-55
2021/11/29 10:03:05;;;;;;;23.77;11.25;;;0.80;96.20;;;;;;5069668;28;20052;-56
2021/11/29 10:05:34;;;;;;;25.70;12.38;;;0.80;95.90;;;;;;5070746;28;20052;-53
2021/11/29 10:08:19;;;;;;;29.58;12.23;;;0.70;95.90;;;;;;5071127;28;20037;-56
2021/11/29 10:10:52;;;;;;;27.33;12.75;;;0.70;96.20;;;;;;5069525;28;20060;-56
2021/11/29 10:13:19;;;;;;;25.85;11.35;;;0.80;96.20;;;;;;5071003;28;20067;-54
2021/11/29 10:15:46;;;;;;;27.23;12.85;;;0.80;96.00;;;;;;5070783;28;20037;-53
2021/11/29 10:18:21;;;;;;;29.73;13.38;;;0.70;96.00;;;;;;5071022;28;20044;-54
2021/11/29 10:20:54;;;;;;;24.90;13.18;;;0.80;96.10;;;;;;5069224;28;20068;-60
2021/11/29 10:23:28;;;;;;;28.95;12.85;;;0.90;96.00;;;;;;5070174;28;20408;-55
2021/11/29 10:25:56;;;;;;;29.90;13.48;;;1.00;96.00;;;;;;5070140;28;20076;-56
2021/11/29 10:28:32;;;;;;;25.20;12.82;;;1.00;95.70;;;;;;5070601;28;20079;-56
2021/11/29 10:31:24;;;;;;;24.75;11.35;;;0.90;96.10;;;;;;5069156;28;20141;-56
2021/11/29 10:34:09;;;;;;;33.35;13.15;;;0.90;95.70;;;;;;5070348;28;20045;-55
2021/11/29 10:36:39;;;;;;;27.83;12.38;;;0.90;96.00;;;;;;5070548;28;20349;-56
2021/11/29 10:39:11;;;;;;;23.90;12.68;;;0.80;96.00;;;;;;5070602;28;20458;-58
2021/11/29 10:41:41;;;;;;;25.33;12.95;;;0.80;96.10;;;;;;4718723;27;10000142;-55
2021/11/29 10:44:19;;;;;;;25.80;12.05;;;0.90;96.10;;;;;;5068965;28;20132;-55
2021/11/29 10:46:53;;;;;;;22.73;11.82;;;0.90;96.00;;;;;;5070247;28;20052;-55
2021/11/29 10:49:21;;;;;;;23.83;11.43;;;1.00;96.10;;;;;;5068832;28;20083;-57
2021/11/29 10:51:49;;;;;;;24.48;13.18;;;1.00;95.90;;;;;;5069880;28;20072;-56
2021/11/29 10:54:23;;;;;;;26.92;13.13;;;1.00;95.90;;;;;;5070333;28;20075;-55
2021/11/29 10:56:50;;;;;;;;;;;1.10;95.90;;;;;;5070540;28;20471;-56
2021/11/29 10:59:19;;;;;;;29.17;13.52;;;1.00;95.80;;;;;;5070117;28;19956;-56
2021/11/29 11:01:47;;;;;;;28.13;11.80;;;1.10;96.00;;;;;;5069803;28;20090;-56
2021/11/29 11:04:16;;;;;;;32.97;14.23;;;1.20;95.80;;;;;;5069772;28;20571;-56
2021/11/29 11:06:45;;;;;;;30.75;12.98;;;1.10;95.70;;;;;;5069740;28;20063;-55
2021/11/29 11:09:28;;;;;;;29.17;13.10;;;1.10;95.80;;;;;;5031856;28;20556;-55
2021/11/29 11:11:59;;;;;;;29.25;13.52;;;1.20;95.70;;;;;;5054607;28;20064;-55
2021/11/29 11:14:31;;;;;;;30.10;13.70;;;1.30;95.60;;;;;;5068434;28;20084;-54
2021/11/29 11:17:17;;;;;;;31.95;13.98;;;1.30;95.70;;;;;;5069325;28;20139;-55
2021/11/29 11:19:48;;;;;;;28.98;13.93;;;1.30;95.40;;;;;;5068182;28;20048;-58
2021/11/29 11:22:38;;;;;;;27.95;13.13;;;1.30;95.50;;;;;;5069516;28;20048;-55
2021/11/29 11:25:09;;;;;;;31.42;14.00;;;1.40;95.50;;;;;;5061652;28;20084;-56
2021/11/29 11:27:40;;;;;;;36.05;14.45;;;1.40;95.40;;;;;;5068239;28;20048;-54
2021/11/29 11:30:10;;;;;;;26.60;13.05;;;1.40;95.30;;;;;;5061355;28;20143;-55
2021/11/29 11:32:45;;;;;;;25.00;13.00;;;1.50;95.30;;;;;;5069379;28;20040;-56
2021/11/29 11:35:14;;;;;;;28.30;13.48;;;1.60;95.30;;;;;;5070034;28;20766;-56
2021/11/29 11:37:51;;;;;;;28.35;11.85;;;1.60;95.10;;;;;;5067820;28;20051;-55
2021/11/29 11:40:23;;;;;;;26.13;12.77;;;1.60;95.10;;;;;;5047997;28;20116;-57
2021/11/29 11:42:50;;;;;;;26.20;12.75;;;1.60;94.80;;;;;;5052382;28;20076;-55
2021/11/29 11:45:18;;;;;;;25.55;13.35;;;1.60;94.90;;;;;;5068965;28;20086;-55
2021/11/29 11:47:45;;;;;;;29.58;12.95;;;1.70;95.10;;;;;;5067456;28;20113;-53
2021/11/29 11:50:14;;;;;;;26.83;13.15;;;1.60;94.80;;;;;;5069291;28;20120;-53
2021/11/29 11:52:41;;;;;;;31.35;13.10;;;1.70;94.90;;;;;;5068924;28;20045;-56
2021/11/29 11:55:10;;;;;;;25.77;13.40;;;1.80;95.00;;;;;;5067970;28;20044;-54
2021/11/29 11:57:53;;;;;;;24.52;13.40;;;1.80;94.90;;;;;;5068489;28;20174;-55
2021/11/29 12:00:30;;;;;;;25.65;12.43;;;1.90;94.80;;;;;;5050938;28;20045;-53
2021/11/29 12:03:25;;;;;;;29.77;14.40;;;1.90;94.80;;;;;;5067187;28;20127;-57
2021/11/29 12:05:58;;;;;;;32.05;13.80;;;2.00;94.70;;;;;;5066970;28;20056;-55
2021/11/29 12:08:32;;;;;;;38.50;13.07;;;2.00;94.50;;;;;;5068323;28;20579;-55
2021/11/29 12:10:59;;;;;;;28.15;11.98;;;2.00;94.80;;;;;;5068293;28;20044;-55
2021/11/29 12:13:26;;;;;;;24.95;11.82;;;2.00;94.30;;;;;;5068096;28;20049;-54
2021/11/29 12:15:57;;;;;;;27.08;13.60;;;2.00;94.30;;;;;;5068313;28;20049;-51
2021/11/29 12:18:53;;;;;;;33.47;14.93;;;2.00;94.30;;;;;;5068245;28;20056;-56
2021/11/29 12:21:21;;;;;;;33.28;14.65;;;2.10;94.30;;;;;;5056404;28;20541;-53
2021/11/29 12:23:49;;;;;;;35.60;15.18;;;2.20;94.50;;;;;;5067959;28;20094;-53
2021/11/29 12:26:16;;;;;;;28.98;13.95;;;2.20;94.20;;;;;;5067422;28;20141;-54
2021/11/29 12:28:44;;;;;;;35.10;16.02;;;2.20;94.10;;;;;;5067856;28;20400;-51
2021/11/29 12:31:41;;;;;;;36.65;16.00;;;2.30;94.30;;;;;;5068173;28;20570;-51
2021/11/29 12:34:09;;;;;;;29.17;14.05;;;2.40;94.00;;;;;;5051128;28;20044;-55
2021/11/29 12:36:54;;;;;;;34.60;13.15;;;2.40;94.00;;;;;;5067705;28;20075;-56
2021/11/29 12:39:40;;;;;;;30.35;12.65;;;2.40;94.20;;;;;;5067825;28;20052;-52
2021/11/29 12:42:06;;;;;;;25.95;12.73;;;2.40;94.00;;;;;;5066361;28;20123;-53